createdAt,value
2022-08-14T00:00:11.051Z,11.40
2022-08-14T00:02:44.303Z,10.25
2022-08-14T00:05:18.946Z,13.88
2022-08-14T00:07:51.019Z,10.27
2022-08-14T00:10:52.148Z,10.90
2022-08-14T00:13:13.774Z,11.50
2022-08-14T00:15:48.402Z,11.57
2022-08-14T00:18:30.393Z,11.70
2022-08-14T00:21:11.622Z,17.23
2022-08-14T00:23:43.228Z,11.68
2022-08-14T00:26:21.671Z,13.55
2022-08-14T00:28:53.331Z,11.68
2022-08-14T00:31:34.693Z,10.38
2022-08-14T00:34:36.576Z,14.57
2022-08-14T00:37:01.874Z,11.55
2022-08-14T00:39:33.372Z,13.63
2022-08-14T00:42:02.667Z,11.00
2022-08-14T00:44:33.370Z,11.32
2022-08-14T00:47:03.666Z,10.70
2022-08-14T00:49:38.323Z,12.30
2022-08-14T00:52:18.007Z,12.40
2022-08-14T00:54:57.869Z,13.85
2022-08-14T00:57:32.075Z,12.50
2022-08-14T01:00:03.168Z,12.13
2022-08-14T01:02:32.465Z,12.45
2022-08-14T01:05:02.867Z,12.77
2022-08-14T01:07:38.655Z,11.85
2022-08-14T01:10:18.920Z,11.57
2022-08-14T01:12:48.809Z,12.82
2022-08-14T01:15:31.636Z,11.52
2022-08-14T01:18:27.990Z,11.93
2022-08-14T01:21:11.847Z,11.82
2022-08-14T01:23:47.259Z,16.15
2022-08-14T01:26:23.516Z,12.02
2022-08-14T01:29:07.443Z,10.70
2022-08-14T01:31:50.383Z,12.15
2022-08-14T01:35:17.569Z,12.20
2022-08-14T01:37:12.714Z,12.65
2022-08-14T01:39:47.180Z,13.00
2022-08-14T01:42:31.425Z,14.00
2022-08-14T01:45:12.757Z,12.30
2022-08-14T01:47:47.184Z,12.50
2022-08-14T01:50:18.961Z,12.30
2022-08-14T01:52:58.613Z,13.73
2022-08-14T01:55:32.504Z,11.55
2022-08-14T01:58:19.526Z,11.63
2022-08-14T02:00:54.960Z,11.95
2022-08-14T02:03:30.967Z,15.32
2022-08-14T02:06:03.911Z,14.60
2022-08-14T02:08:52.798Z,13.50
2022-08-14T02:11:27.047Z,12.23
2022-08-14T02:14:07.158Z,12.68
2022-08-14T02:16:41.523Z,13.25
2022-08-14T02:19:15.013Z,10.85
2022-08-14T02:21:48.743Z,12.63
2022-08-14T02:24:38.834Z,13.48
2022-08-14T02:28:24.681Z,17.02
2022-08-14T02:30:02.827Z,12.23
2022-08-14T02:32:44.644Z,14.15
2022-08-14T02:35:17.997Z,12.52
2022-08-14T02:37:49.426Z,14.52
2022-08-14T02:40:20.318Z,12.93
2022-08-14T02:42:54.636Z,14.68
2022-08-14T02:45:38.849Z,14.45
2022-08-14T02:49:03.350Z,16.43
2022-08-14T02:51:08.942Z,14.65
2022-08-14T02:53:42.453Z,14.48
2022-08-14T02:56:30.097Z,13.80
2022-08-14T02:59:05.556Z,14.93
2022-08-14T03:01:43.876Z,20.75
2022-08-14T03:04:20.872Z,14.57
2022-08-14T03:06:58.043Z,14.70
2022-08-14T03:10:26.729Z,17.55
2022-08-14T03:12:32.389Z,14.10
2022-08-14T03:15:16.479Z,16.00
2022-08-14T03:17:57.062Z,16.10
2022-08-14T03:20:29.206Z,16.25
2022-08-14T03:23:03.177Z,17.17
2022-08-14T03:25:34.336Z,15.73
2022-08-14T03:28:14.354Z,14.25
2022-08-14T03:30:46.224Z,14.02
2022-08-14T03:33:15.367Z,14.85
2022-08-14T03:36:00.293Z,17.45
2022-08-14T03:39:14.959Z,16.48
2022-08-14T03:41:26.449Z,16.08
2022-08-14T03:44:01.530Z,14.52
2022-08-14T03:46:54.460Z,14.93
2022-08-14T03:49:29.666Z,17.55
2022-08-14T03:52:00.908Z,16.75
2022-08-14T03:54:35.826Z,19.23
2022-08-14T03:57:06.733Z,19.33
2022-08-14T03:59:36.796Z,21.10
2022-08-14T04:02:37.237Z,20.17
2022-08-14T04:04:57.336Z,15.23
2022-08-14T04:07:49.721Z,17.83
2022-08-14T04:13:03.449Z,19.98
2022-08-14T04:15:56.748Z,19.08
2022-08-14T04:18:24.248Z,17.00
2022-08-14T04:20:54.541Z,21.15
2022-08-14T04:23:29.946Z,21.15
2022-08-14T04:26:04.827Z,20.33
2022-08-14T04:29:08.054Z,21.05
2022-08-14T04:33:10.696Z,24.42
2022-08-14T04:34:24.234Z,21.92
2022-08-14T04:37:17.463Z,23.20
2022-08-14T04:40:09.155Z,18.05
2022-08-14T04:43:00.782Z,21.45
2022-08-14T04:45:40.994Z,17.75
2022-08-14T04:48:38.692Z,16.48
2022-08-14T04:51:10.696Z,16.55
2022-08-14T04:53:44.596Z,15.52
2022-08-14T04:56:30.832Z,18.73
2022-08-14T04:59:10.136Z,20.30
2022-08-14T05:01:48.874Z,22.30
2022-08-14T05:04:21.017Z,20.02
2022-08-14T05:06:55.153Z,22.60
2022-08-14T05:09:29.405Z,20.20
2022-08-14T05:13:11.148Z,20.30
2022-08-14T05:14:54.660Z,20.17
2022-08-14T05:17:28.854Z,17.38
2022-08-14T05:23:03.652Z,15.88
2022-08-14T05:25:34.389Z,15.57
2022-08-14T05:28:14.189Z,18.75
2022-08-14T05:30:46.846Z,18.35
2022-08-14T05:33:18.668Z,13.48
2022-08-14T05:35:51.042Z,14.70
2022-08-14T05:38:30.686Z,15.27
2022-08-14T05:41:02.345Z,13.13
2022-08-14T05:43:41.613Z,17.52
2022-08-14T05:46:15.414Z,19.33
2022-08-14T05:48:45.477Z,11.85
2022-08-14T05:51:14.896Z,15.27
2022-08-14T05:54:00.307Z,14.50
2022-08-14T05:56:37.116Z,12.95
2022-08-14T05:59:07.221Z,14.38
2022-08-14T06:01:36.777Z,12.98
2022-08-14T06:04:06.256Z,14.02
2022-08-14T06:06:38.376Z,17.92
2022-08-14T06:09:10.599Z,10.95
2022-08-14T06:11:39.863Z,11.00
2022-08-14T06:14:20.820Z,14.02
2022-08-14T06:16:53.049Z,11.65
2022-08-14T06:19:23.462Z,10.27
2022-08-14T06:21:59.006Z,10.07
2022-08-14T06:24:34.659Z,12.05
2022-08-14T06:27:09.975Z,11.50
2022-08-14T06:29:40.377Z,10.48
2022-08-14T06:32:38.726Z,11.85
2022-08-14T06:35:09.122Z,12.25
2022-08-14T06:37:45.205Z,9.38
2022-08-14T06:40:26.920Z,10.27
2022-08-14T06:43:00.366Z,9.85
2022-08-14T06:45:32.727Z,11.50
2022-08-14T06:48:06.327Z,10.07
2022-08-14T06:50:42.200Z,8.75
2022-08-14T06:53:16.585Z,10.75
2022-08-14T06:55:53.228Z,9.35
2022-08-14T06:58:30.952Z,9.23
2022-08-14T07:01:27.116Z,8.93
2022-08-14T07:04:23.169Z,11.02
2022-08-14T07:06:58.495Z,8.25
2022-08-14T07:09:40.496Z,13.13
2022-08-14T07:12:34.757Z,14.85
2022-08-14T07:15:05.905Z,10.73
2022-08-14T07:17:36.316Z,8.57
2022-08-14T07:20:07.616Z,10.55
2022-08-14T07:22:55.863Z,7.40
2022-08-14T07:25:32.564Z,7.15
2022-08-14T07:28:12.866Z,7.10
2022-08-14T07:30:50.737Z,6.93
2022-08-14T07:33:29.300Z,11.00
2022-08-14T07:36:26.263Z,8.70
2022-08-14T07:38:53.095Z,11.68
2022-08-14T07:41:22.180Z,11.55
2022-08-14T07:43:55.807Z,10.38
2022-08-14T07:46:28.299Z,10.27
2022-08-14T07:48:58.993Z,28.90
2022-08-14T07:51:36.631Z,9.18
2022-08-14T07:54:11.103Z,11.25
2022-08-14T07:56:48.164Z,11.38
2022-08-14T07:59:41.490Z,17.40
2022-08-14T08:02:18.087Z,7.45
2022-08-14T08:04:54.026Z,24.85
2022-08-14T08:07:30.136Z,25.10
2022-08-14T08:10:31.183Z,9.77
2022-08-14T08:13:18.076Z,15.13
2022-08-14T08:15:56.601Z,7.95
2022-08-14T08:18:29.814Z,8.65
2022-08-14T08:21:00.696Z,7.65
2022-08-14T08:23:43.711Z,9.30
2022-08-14T08:26:20.775Z,9.98
2022-08-14T08:28:58.040Z,8.10
2022-08-14T08:31:33.142Z,7.10
2022-08-14T08:34:07.402Z,8.20
2022-08-14T08:36:46.488Z,7.97
2022-08-14T08:39:22.583Z,6.75
2022-08-14T08:41:53.609Z,7.60
2022-08-14T08:44:32.663Z,7.13
2022-08-14T08:47:06.771Z,8.18
2022-08-14T08:49:59.295Z,7.95
2022-08-14T08:52:31.158Z,7.10
2022-08-14T08:55:05.031Z,6.20
2022-08-14T08:57:37.607Z,6.68
2022-08-14T09:00:24.894Z,6.65
2022-08-14T09:03:03.221Z,9.25
2022-08-14T09:05:37.318Z,7.03
2022-08-14T09:08:30.892Z,9.88
2022-08-14T09:11:18.780Z,7.10
2022-08-14T09:13:53.247Z,7.75
2022-08-14T09:16:25.345Z,8.10
2022-08-14T09:18:57.507Z,7.00
2022-08-14T09:21:31.695Z,9.23
2022-08-14T09:24:30.248Z,7.45
2022-08-14T09:26:50.967Z,7.00
2022-08-14T09:29:23.520Z,9.95
2022-08-14T09:31:58.201Z,6.82
2022-08-14T09:34:59.272Z,7.90
2022-08-14T09:37:38.729Z,8.52
2022-08-14T09:40:22.284Z,7.05
2022-08-14T09:43:05.600Z,6.60
2022-08-14T09:45:53.298Z,6.80
2022-08-14T09:48:29.857Z,7.97
2022-08-14T09:54:18.578Z,11.02
2022-08-14T09:56:45.761Z,7.00
2022-08-14T09:59:22.272Z,6.82
2022-08-14T10:01:53.234Z,9.85
2022-08-14T10:04:36.544Z,9.20
2022-08-14T10:07:10.231Z,6.55
2022-08-14T10:09:59.898Z,7.55
2022-08-14T10:12:52.902Z,6.57
2022-08-14T10:15:29.777Z,7.03
2022-08-14T10:18:17.215Z,6.60
2022-08-14T10:20:57.549Z,6.38
2022-08-14T10:23:39.704Z,9.27
2022-08-14T10:26:11.975Z,8.63
2022-08-14T10:29:18.621Z,10.63
2022-08-14T10:31:45.876Z,7.22
2022-08-14T10:34:29.038Z,6.65
2022-08-14T10:37:14.265Z,6.72
2022-08-14T10:40:05.629Z,7.07
2022-08-14T10:42:43.592Z,6.60
2022-08-14T10:45:22.036Z,6.70
2022-08-14T10:48:07.847Z,6.35
2022-08-14T10:53:15.896Z,6.93
2022-08-14T10:55:48.251Z,6.30
2022-08-14T10:58:32.818Z,6.47
2022-08-14T11:01:05.589Z,9.07
2022-08-14T11:03:55.726Z,6.85
2022-08-14T11:06:27.251Z,6.55
2022-08-14T11:08:56.597Z,8.80
2022-08-14T11:11:28.563Z,5.90
2022-08-14T11:14:09.384Z,6.97
2022-08-14T11:16:40.583Z,7.97
2022-08-14T11:19:11.319Z,5.35
2022-08-14T11:21:45.799Z,6.20
2022-08-14T11:24:55.257Z,6.25
2022-08-14T11:27:11.366Z,6.75
2022-08-14T11:29:42.263Z,7.63
2022-08-14T11:32:12.103Z,5.97
2022-08-14T11:34:41.917Z,5.88
2022-08-14T11:37:21.535Z,5.18
2022-08-14T11:40:02.222Z,5.75
2022-08-14T11:42:58.445Z,6.03
2022-08-14T11:45:23.444Z,6.00
2022-08-14T11:48:12.584Z,7.50
2022-08-14T11:50:43.437Z,6.45
2022-08-14T11:53:22.147Z,5.60
2022-08-14T11:55:58.489Z,5.40
2022-08-14T11:58:31.224Z,5.00
2022-08-14T12:01:07.175Z,6.53
2022-08-14T12:03:52.295Z,6.70
2022-08-14T12:06:39.186Z,5.57
2022-08-14T12:09:13.921Z,5.88
2022-08-14T12:11:46.878Z,6.22
2022-08-14T12:14:30.440Z,6.03
2022-08-14T12:17:09.625Z,6.05
2022-08-14T12:19:51.449Z,6.13
2022-08-14T12:22:40.172Z,6.97
2022-08-14T12:25:15.432Z,6.13
2022-08-14T12:27:53.183Z,5.45
2022-08-14T12:30:42.571Z,6.97
2022-08-14T12:33:26.996Z,6.60
2022-08-14T12:36:04.520Z,6.53
2022-08-14T12:38:38.699Z,5.30
2022-08-14T12:41:16.423Z,7.78
2022-08-14T12:43:53.704Z,5.88
2022-08-14T12:46:29.247Z,5.72
2022-08-14T12:49:02.384Z,6.72
2022-08-14T12:51:32.572Z,5.63
2022-08-14T12:54:18.614Z,6.78
2022-08-14T12:57:07.948Z,6.30
2022-08-14T12:59:42.829Z,5.53
2022-08-14T13:02:25.256Z,5.05
2022-08-14T13:04:56.751Z,6.28
2022-08-14T13:07:32.006Z,5.53
2022-08-14T13:10:46.129Z,6.55
2022-08-14T13:13:15.469Z,5.63
2022-08-14T13:15:46.483Z,5.38
2022-08-14T13:18:18.083Z,6.28
2022-08-14T13:20:55.400Z,5.78
2022-08-14T13:23:31.604Z,7.28
2022-08-14T13:26:02.821Z,5.50
2022-08-14T13:28:41.269Z,5.30
2022-08-14T13:31:30.037Z,4.72
2022-08-14T13:34:04.511Z,7.53
2022-08-14T13:36:54.520Z,6.90
2022-08-14T13:39:26.347Z,5.30
2022-08-14T13:41:57.550Z,5.88
2022-08-14T13:44:28.800Z,7.63
2022-08-14T13:46:58.767Z,5.18
2022-08-14T13:49:29.378Z,5.78
2022-08-14T13:52:01.447Z,7.13
2022-08-14T13:54:32.878Z,6.18
2022-08-14T13:57:03.796Z,7.20
2022-08-14T13:59:38.653Z,5.10
2022-08-14T14:02:09.545Z,4.90
2022-08-14T14:04:46.401Z,4.53
2022-08-14T14:07:23.563Z,5.70
2022-08-14T14:09:56.664Z,5.28
2022-08-14T14:12:38.475Z,4.88
2022-08-14T14:15:13.826Z,5.43
2022-08-14T14:17:46.543Z,4.85
2022-08-14T14:20:35.949Z,5.07
2022-08-14T14:23:12.167Z,4.90
2022-08-14T14:25:51.225Z,4.68
2022-08-14T14:28:34.223Z,5.88
2022-08-14T14:31:05.846Z,4.75
2022-08-14T14:33:46.669Z,8.23
2022-08-14T14:36:25.381Z,6.35
2022-08-14T14:38:58.192Z,7.30
2022-08-14T14:41:38.076Z,4.95
2022-08-14T14:44:13.591Z,4.72
2022-08-14T14:46:51.155Z,5.53
2022-08-14T14:49:31.994Z,5.60
2022-08-14T14:52:27.353Z,4.50
2022-08-14T14:54:59.050Z,4.60
2022-08-14T14:57:35.540Z,4.60
2022-08-14T15:00:12.602Z,4.70
2022-08-14T15:02:47.306Z,5.32
2022-08-14T15:05:23.449Z,5.55
2022-08-14T15:07:59.044Z,4.45
2022-08-14T15:10:34.223Z,4.18
2022-08-14T15:13:07.250Z,4.13
2022-08-14T15:15:38.062Z,4.55
2022-08-14T15:18:36.389Z,4.93
2022-08-14T15:21:02.620Z,4.65
2022-08-14T15:23:43.719Z,5.78
2022-08-14T15:26:24.070Z,5.25
2022-08-14T15:29:05.717Z,5.25
2022-08-14T15:31:37.319Z,4.85
2022-08-14T15:34:44.795Z,4.85
2022-08-14T15:37:06.615Z,4.80
2022-08-14T15:39:44.381Z,9.32
2022-08-14T15:42:16.123Z,4.88
2022-08-14T15:44:58.047Z,4.88
2022-08-14T15:47:34.715Z,4.32
2022-08-14T15:50:09.641Z,4.78
2022-08-14T15:52:42.932Z,6.35
2022-08-14T15:55:16.394Z,5.38
2022-08-14T15:57:51.440Z,5.90
2022-08-14T16:00:51.981Z,5.78
2022-08-14T16:03:27.203Z,4.55
2022-08-14T16:06:10.633Z,6.65
2022-08-14T16:08:40.947Z,4.95
2022-08-14T16:11:13.208Z,5.07
2022-08-14T16:13:44.367Z,4.28
2022-08-14T16:16:47.378Z,6.60
2022-08-14T16:19:11.151Z,6.47
2022-08-14T16:22:02.255Z,6.00
2022-08-14T16:24:36.060Z,7.38
2022-08-14T16:27:39.022Z,6.85
2022-08-14T16:30:25.227Z,6.95
2022-08-14T16:35:55.906Z,7.15
2022-08-14T16:38:45.854Z,8.07
2022-08-14T16:40:24.515Z,7.23
2022-08-14T16:41:22.971Z,9.25
2022-08-14T16:44:01.349Z,9.27
2022-08-14T16:46:34.851Z,6.32
2022-08-14T16:49:07.166Z,6.43
2022-08-14T16:51:39.021Z,12.32
2022-08-14T16:54:34.381Z,6.55
2022-08-14T16:57:17.231Z,7.25
2022-08-14T16:59:52.204Z,9.57
2022-08-14T17:02:38.950Z,8.57
2022-08-14T17:05:24.819Z,7.50
2022-08-14T17:08:41.812Z,7.55
2022-08-14T17:11:10.522Z,8.05
2022-08-14T17:13:58.371Z,9.50
2022-08-14T17:16:38.176Z,7.00
2022-08-14T17:21:47.327Z,11.23
2022-08-14T17:24:57.979Z,7.18
2022-08-14T17:27:09.421Z,7.28
2022-08-14T17:32:56.629Z,6.78
2022-08-14T17:35:58.809Z,8.32
2022-08-14T17:38:38.383Z,6.82
2022-08-14T17:41:23.854Z,6.88
2022-08-14T17:44:10.807Z,9.20
2022-08-14T17:46:43.944Z,6.78
2022-08-14T17:49:18.361Z,9.38
2022-08-14T17:52:07.711Z,6.47
2022-08-14T17:54:52.911Z,8.18
2022-08-14T17:57:35.344Z,8.45
2022-08-14T18:00:14.777Z,8.20
2022-08-14T18:02:50.821Z,7.53
2022-08-14T18:06:06.937Z,8.50
2022-08-14T18:08:33.733Z,7.03
2022-08-14T18:11:03.499Z,7.47
2022-08-14T18:13:51.259Z,7.82
2022-08-14T18:16:22.968Z,8.40
2022-08-14T18:18:52.738Z,8.70
2022-08-14T18:21:41.442Z,7.72
2022-08-14T18:24:19.913Z,8.05
2022-08-14T18:27:08.663Z,9.50
2022-08-14T18:29:54.493Z,8.10
2022-08-14T18:32:47.427Z,8.70
2022-08-14T18:35:56.739Z,7.22
2022-08-14T18:38:55.124Z,8.13
2022-08-14T18:41:36.981Z,7.32
2022-08-14T18:44:10.131Z,8.18
2022-08-14T18:47:23.799Z,9.93
2022-08-14T18:50:27.734Z,12.90
2022-08-14T18:52:55.106Z,11.80
2022-08-14T18:55:54.072Z,12.45
2022-08-14T18:58:31.496Z,9.80
2022-08-14T19:01:06.066Z,12.45
2022-08-14T19:04:01.595Z,10.18
2022-08-14T19:06:56.581Z,8.25
2022-08-14T19:09:57.819Z,7.80
2022-08-14T19:13:05.445Z,8.40
2022-08-14T19:15:44.549Z,7.72
2022-08-14T19:18:38.360Z,8.25
2022-08-14T19:21:24.015Z,9.45
2022-08-14T19:24:29.613Z,8.82
2022-08-14T19:27:19.488Z,9.38
2022-08-14T19:30:24.446Z,8.70
2022-08-14T19:33:02.500Z,9.18
2022-08-14T19:35:56.032Z,9.70
2022-08-14T19:38:54.659Z,10.30
2022-08-14T19:41:30.671Z,8.75
2022-08-14T19:44:13.635Z,10.48
2022-08-14T19:47:01.041Z,10.27
2022-08-14T19:50:08.728Z,8.90
2022-08-14T19:52:26.858Z,11.90
2022-08-14T19:55:00.486Z,9.25
2022-08-14T19:57:31.960Z,9.90
2022-08-14T20:00:28.438Z,9.73
2022-08-14T20:03:11.389Z,9.77
2022-08-14T20:05:43.010Z,10.45
2022-08-14T20:11:07.164Z,9.82
2022-08-14T20:11:20.888Z,9.98
2022-08-14T20:14:01.735Z,9.27
2022-08-14T20:16:34.838Z,9.90
2022-08-14T20:19:23.233Z,12.35
2022-08-14T20:22:18.061Z,10.02
2022-08-14T20:24:47.313Z,13.02
2022-08-14T20:27:33.721Z,10.13
2022-08-14T20:30:37.614Z,10.75
2022-08-14T20:33:11.502Z,9.48
2022-08-14T20:35:49.219Z,9.45
2022-08-14T20:38:20.685Z,9.30
2022-08-14T20:41:06.659Z,10.68
2022-08-14T20:43:59.502Z,10.55
2022-08-14T20:46:38.675Z,10.43
2022-08-14T20:49:12.485Z,10.57
2022-08-14T20:51:54.776Z,12.18
2022-08-14T20:54:34.062Z,11.05
2022-08-14T20:57:12.053Z,11.27
2022-08-14T20:59:48.734Z,10.10
2022-08-14T21:02:46.610Z,9.85
2022-08-14T21:05:33.784Z,9.80
2022-08-14T21:08:09.588Z,9.85
2022-08-14T21:10:56.760Z,11.82
2022-08-14T21:14:20.530Z,10.18
2022-08-14T21:16:33.016Z,11.25
2022-08-14T21:19:05.668Z,13.95
2022-08-14T21:21:41.620Z,10.98
2022-08-14T21:24:38.378Z,12.03
2022-08-14T21:27:19.686Z,12.30
2022-08-14T21:29:54.275Z,11.43
2022-08-14T21:32:50.201Z,11.13
2022-08-14T21:35:22.805Z,14.88
2022-08-14T21:37:53.927Z,11.65
2022-08-14T21:40:41.849Z,11.90
2022-08-14T21:43:18.046Z,12.02
2022-08-14T21:45:51.652Z,13.27
2022-08-14T21:48:25.323Z,10.63
2022-08-14T21:51:53.808Z,11.48
2022-08-14T21:53:59.661Z,11.25
2022-08-14T21:56:38.703Z,10.45
2022-08-14T21:59:18.290Z,14.98
2022-08-14T22:02:01.003Z,11.10
2022-08-14T22:04:40.633Z,13.00
2022-08-14T22:07:17.327Z,12.48
2022-08-14T22:09:55.002Z,9.93
2022-08-14T22:12:57.608Z,12.40
2022-08-14T22:15:17.986Z,10.18
2022-08-14T22:17:54.171Z,11.20
2022-08-14T22:20:28.092Z,10.35
2022-08-14T22:23:06.053Z,14.18
2022-08-14T22:25:41.044Z,11.77
2022-08-14T22:28:17.700Z,11.68
2022-08-14T22:30:54.786Z,10.93
2022-08-14T22:33:31.066Z,11.73
2022-08-14T22:36:25.463Z,12.52
2022-08-14T22:38:56.761Z,10.75
2022-08-14T22:41:32.699Z,10.13
2022-08-14T22:44:10.858Z,12.40
2022-08-14T22:46:43.293Z,10.90
2022-08-14T22:49:16.336Z,15.18
2022-08-14T22:52:31.547Z,11.98
2022-08-14T22:54:58.871Z,12.40
2022-08-14T22:57:37.571Z,12.43
2022-08-14T23:00:16.546Z,12.23
2022-08-14T23:02:46.781Z,10.55
2022-08-14T23:05:16.582Z,13.20
2022-08-14T23:08:58.331Z,10.52
2022-08-14T23:10:56.740Z,12.52
2022-08-14T23:13:26.504Z,11.38
2022-08-14T23:16:00.296Z,16.67
2022-08-14T23:18:30.362Z,12.07
2022-08-14T23:20:59.626Z,12.93
2022-08-14T23:23:29.204Z,12.65
2022-08-14T23:26:49.848Z,14.32
2022-08-14T23:28:56.930Z,14.13
2022-08-14T23:31:35.599Z,13.75
2022-08-14T23:36:55.479Z,14.02
2022-08-14T23:39:31.093Z,13.07
2022-08-14T23:42:04.643Z,14.43
2022-08-14T23:44:37.074Z,13.30
2022-08-14T23:47:11.922Z,17.73
2022-08-14T23:50:00.719Z,14.15
2022-08-14T23:52:56.379Z,14.10
2022-08-14T23:55:30.259Z,14.05
2022-08-14T23:58:00.662Z,12.40
